createdAt,value
2019-04-23T00:00:19.826Z,12.27
2019-04-23T00:05:41.843Z,12.12
2019-04-23T00:08:10.114Z,12.08
2019-04-23T00:10:49.808Z,12.10
2019-04-23T00:13:12.491Z,11.94
2019-04-23T00:16:00.462Z,11.83
2019-04-23T00:18:35.300Z,11.98
2019-04-23T00:20:57.827Z,11.89
2019-04-23T00:23:35.158Z,11.87
2019-04-23T00:26:20.318Z,11.68
2019-04-23T00:28:51.894Z,11.82
2019-04-23T00:31:20.847Z,11.77
2019-04-23T00:33:51.153Z,11.80
2019-04-23T00:36:27.176Z,11.82
2019-04-23T00:38:50.249Z,11.72
2019-04-23T00:41:24.754Z,11.76
2019-04-23T00:49:05.005Z,11.72
2019-04-23T00:51:37.960Z,11.75
2019-04-23T00:54:13.594Z,11.72
2019-04-23T00:56:44.526Z,11.78
2019-04-23T00:59:12.182Z,11.68
2019-04-23T01:01:49.727Z,11.79
2019-04-23T01:04:20.431Z,11.78
2019-04-23T01:06:54.849Z,11.57
2019-04-23T01:09:30.914Z,11.45
2019-04-23T01:11:59.389Z,11.47
2019-04-23T01:14:34.665Z,11.40
2019-04-23T01:17:13.877Z,11.31
2019-04-23T01:19:39.946Z,11.32
2019-04-23T01:21:51.531Z,11.38
2019-04-23T01:24:34.498Z,11.29
2019-04-23T01:27:41.139Z,11.50
2019-04-23T01:30:05.325Z,11.37
2019-04-23T01:35:15.367Z,11.31
2019-04-23T01:40:12.374Z,11.29
2019-04-23T01:42:44.622Z,11.31
2019-04-23T01:45:23.377Z,11.22
2019-04-23T01:47:49.745Z,11.38
2019-04-23T01:55:26.274Z,10.93
2019-04-23T02:03:09.318Z,10.99
2019-04-23T02:05:41.328Z,10.96
2019-04-23T02:08:12.870Z,10.89
2019-04-23T02:10:56.748Z,10.86
2019-04-23T02:13:28.598Z,10.96
2019-04-23T02:15:53.472Z,10.89
2019-04-23T02:18:27.204Z,10.88
2019-04-23T02:21:02.461Z,10.98
2019-04-23T02:23:39.650Z,10.84
2019-04-23T02:26:10.217Z,10.74
2019-04-23T02:28:46.357Z,10.85
2019-04-23T02:34:14.365Z,10.83
2019-04-23T02:36:29.259Z,10.77
2019-04-23T02:38:55.470Z,10.74
2019-04-23T02:41:38.206Z,10.65
2019-04-23T02:44:15.185Z,10.54
2019-04-23T02:46:32.115Z,10.47
2019-04-23T02:51:45.934Z,10.46
2019-04-23T02:56:55.733Z,10.42
2019-04-23T03:01:54.389Z,10.37
2019-04-23T03:04:33.993Z,10.62
2019-04-23T03:07:10.853Z,10.55
2019-04-23T03:09:46.994Z,10.65
2019-04-23T03:12:06.388Z,10.45
2019-04-23T03:14:33.034Z,10.42
2019-04-23T03:17:03.408Z,10.50
2019-04-23T03:19:45.537Z,10.49
2019-04-23T03:22:14.712Z,10.37
2019-04-23T03:25:12.590Z,10.39
2019-04-23T03:27:37.263Z,10.33
2019-04-23T03:30:16.218Z,10.44
2019-04-23T03:32:48.224Z,10.56
2019-04-23T03:35:09.246Z,10.43
2019-04-23T03:37:46.399Z,10.55
2019-04-23T03:40:15.758Z,10.42
2019-04-23T03:43:01.350Z,10.19
2019-04-23T03:45:37.037Z,10.13
2019-04-23T03:50:39.066Z,10.19
2019-04-23T03:53:05.184Z,10.23
2019-04-23T03:58:15.953Z,10.21
2019-04-23T04:00:45.600Z,10.40
2019-04-23T04:06:05.510Z,10.18
2019-04-23T04:11:02.517Z,10.42
2019-04-23T04:13:37.048Z,10.25
2019-04-23T04:16:07.483Z,10.12
2019-04-23T04:18:39.206Z,10.12
2019-04-23T04:21:09.591Z,10.27
2019-04-23T04:31:15.863Z,10.35
2019-04-23T04:34:07.430Z,10.49
2019-04-23T04:41:27.683Z,10.34
2019-04-23T04:44:05.442Z,10.51
2019-04-23T04:49:01.443Z,10.38
2019-04-23T04:54:09.754Z,10.47
2019-04-23T04:56:36.053Z,10.44
2019-04-23T04:59:09.473Z,10.65
2019-04-23T05:01:49.041Z,10.74
2019-04-23T05:04:24.765Z,10.78
2019-04-23T05:16:56.367Z,11.01
2019-04-23T05:22:06.954Z,11.52
2019-04-23T05:24:36.691Z,11.39
2019-04-23T05:27:02.739Z,11.77
2019-04-23T05:29:41.430Z,11.87
2019-04-23T05:32:12.031Z,12.03
2019-04-23T05:34:40.222Z,12.35
2019-04-23T05:37:45.260Z,12.07
2019-04-23T05:39:46.589Z,12.15
2019-04-23T05:42:19.921Z,12.39
2019-04-23T05:45:08.252Z,12.09
2019-04-23T05:47:27.894Z,11.79
2019-04-23T05:50:00.651Z,11.74
2019-04-23T05:52:41.318Z,11.65
2019-04-23T05:57:39.160Z,11.96
2019-04-23T06:00:07.746Z,11.95
2019-04-23T06:02:53.770Z,11.87
2019-04-23T06:05:22.371Z,11.70
2019-04-23T06:07:49.371Z,11.96
2019-04-23T06:10:24.182Z,11.98
2019-04-23T06:12:52.220Z,13.20
2019-04-23T06:15:26.770Z,15.24
2019-04-23T06:18:01.967Z,16.38
2019-04-23T06:20:45.397Z,17.35
2019-04-23T06:25:50.738Z,18.39
2019-04-23T06:28:14.608Z,19.00
2019-04-23T06:30:52.237Z,20.54
2019-04-23T06:33:21.070Z,19.72
2019-04-23T06:35:50.312Z,20.34
2019-04-23T06:40:55.491Z,20.71
2019-04-23T06:43:33.161Z,20.79
2019-04-23T06:46:01.568Z,21.00
2019-04-23T06:48:33.830Z,20.62
2019-04-23T06:51:11.233Z,19.18
2019-04-23T06:53:41.087Z,18.61
2019-04-23T06:58:43.655Z,18.66
2019-04-23T07:01:17.611Z,18.94
2019-04-23T07:03:52.217Z,18.53
2019-04-23T07:13:55.728Z,23.12
2019-04-23T07:21:54.123Z,22.02
2019-04-23T07:26:39.133Z,25.07
2019-04-23T07:29:15.392Z,23.38
2019-04-23T07:31:49.532Z,24.32
2019-04-23T07:34:13.780Z,22.67
2019-04-23T07:36:47.709Z,22.42
2019-04-23T07:39:33.305Z,22.27
2019-04-23T07:44:57.975Z,23.68
2019-04-23T07:47:31.348Z,22.67
2019-04-23T07:50:09.734Z,21.94
2019-04-23T07:55:06.618Z,22.65
2019-04-23T07:57:47.634Z,22.41
2019-04-23T08:00:07.582Z,23.48
2019-04-23T08:02:48.923Z,22.32
2019-04-23T08:07:54.173Z,21.54
2019-04-23T08:10:22.779Z,20.49
2019-04-23T08:15:28.073Z,21.02
2019-04-23T08:17:58.656Z,21.83
2019-04-23T08:20:37.015Z,21.42
2019-04-23T08:23:12.539Z,22.10
2019-04-23T08:26:11.415Z,21.33
2019-04-23T08:28:43.411Z,20.99
2019-04-23T08:31:09.954Z,21.36
2019-04-23T08:33:42.274Z,21.69
2019-04-23T08:36:12.160Z,20.99
2019-04-23T08:38:57.068Z,21.41
2019-04-23T08:41:35.983Z,21.44
2019-04-23T08:46:45.560Z,21.32
2019-04-23T08:49:06.683Z,20.97
2019-04-23T08:51:44.087Z,20.94
2019-04-23T08:54:21.936Z,21.42
2019-04-23T08:56:48.047Z,21.07
2019-04-23T08:59:25.346Z,20.12
2019-04-23T09:01:57.628Z,19.78
2019-04-23T09:04:23.920Z,20.52
2019-04-23T09:06:54.564Z,21.44
2019-04-23T09:09:27.145Z,21.40
2019-04-23T09:11:58.019Z,22.03
2019-04-23T09:14:34.367Z,21.76
2019-04-23T09:17:13.193Z,21.77
2019-04-23T09:19:55.855Z,22.09
2019-04-23T09:22:33.423Z,21.99
2019-04-23T09:24:47.067Z,21.52
2019-04-23T09:27:22.698Z,21.15
2019-04-23T09:37:34.661Z,20.68
2019-04-23T09:40:45.686Z,21.34
2019-04-23T09:43:12.183Z,21.19
2019-04-23T09:45:48.707Z,20.86
2019-04-23T09:48:45.653Z,21.34
2019-04-23T09:50:57.029Z,20.51
2019-04-23T09:55:57.940Z,21.16
2019-04-23T09:58:21.988Z,21.59
2019-04-23T10:03:50.852Z,21.00
2019-04-23T10:06:18.126Z,20.71
2019-04-23T10:08:49.142Z,20.79
2019-04-23T10:11:17.782Z,21.10
2019-04-23T10:13:50.212Z,20.71
2019-04-23T10:16:23.302Z,21.03
2019-04-23T10:18:53.418Z,21.21
2019-04-23T10:21:25.512Z,20.60
2019-04-23T10:23:57.223Z,19.70
2019-04-23T10:26:30.293Z,20.53
2019-04-23T10:29:03.735Z,20.53
2019-04-23T10:31:35.639Z,19.85
2019-04-23T10:34:06.560Z,19.45
2019-04-23T10:36:38.668Z,19.74
2019-04-23T10:39:17.593Z,19.74
2019-04-23T10:41:45.405Z,19.51
2019-04-23T10:44:32.970Z,19.71
2019-04-23T10:47:59.037Z,19.74
2019-04-23T10:50:42.231Z,20.15
2019-04-23T10:53:19.836Z,20.16
2019-04-23T10:55:47.897Z,19.69
2019-04-23T10:58:17.317Z,19.86
2019-04-23T11:00:46.636Z,19.72
2019-04-23T11:03:35.389Z,19.94
2019-04-23T11:05:58.881Z,19.80
2019-04-23T11:08:29.094Z,20.16
2019-04-23T11:11:03.579Z,19.93
2019-04-23T11:16:43.947Z,20.36
2019-04-23T11:18:55.383Z,20.48
2019-04-23T11:21:14.894Z,20.57
2019-04-23T11:23:41.604Z,20.88
2019-04-23T11:26:24.397Z,20.63
2019-04-23T11:28:46.647Z,20.49
2019-04-23T11:31:31.157Z,20.01
2019-04-23T11:34:01.127Z,20.01
2019-04-23T11:36:47.884Z,19.71
2019-04-23T11:38:58.708Z,19.85
2019-04-23T11:41:47.343Z,19.98
2019-04-23T11:44:13.461Z,20.23
2019-04-23T11:46:54.013Z,20.36
2019-04-23T11:49:26.403Z,20.14
2019-04-23T11:54:21.360Z,20.68
2019-04-23T11:57:14.150Z,21.04
2019-04-23T11:59:31.589Z,20.96
2019-04-23T12:02:06.239Z,20.45
2019-04-23T12:04:37.140Z,20.33
2019-04-23T12:07:09.444Z,20.07
2019-04-23T12:12:39.969Z,20.07
2019-04-23T12:15:03.664Z,19.76
2019-04-23T12:17:49.097Z,20.03
2019-04-23T12:20:21.406Z,20.35
2019-04-23T12:22:57.119Z,20.40
2019-04-23T12:27:44.074Z,20.13
2019-04-23T12:33:21.465Z,19.90
2019-04-23T12:38:13.986Z,20.03
2019-04-23T12:40:38.198Z,19.85
2019-04-23T12:43:17.375Z,19.92
2019-04-23T12:45:56.810Z,20.11
2019-04-23T12:48:36.515Z,19.99
2019-04-23T12:51:08.933Z,20.04
2019-04-23T12:53:30.572Z,19.82
2019-04-23T12:56:22.000Z,20.17
2019-04-23T13:01:07.205Z,20.03
2019-04-23T13:06:11.167Z,19.82
2019-04-23T13:09:00.965Z,19.86
2019-04-23T13:11:23.718Z,19.78
2019-04-23T13:13:51.989Z,19.77
2019-04-23T13:16:39.940Z,19.79
2019-04-23T13:19:07.831Z,19.89
2019-04-23T13:24:04.230Z,19.67
2019-04-23T13:26:30.919Z,19.89
2019-04-23T13:29:11.500Z,20.04
2019-04-23T13:31:34.689Z,19.88
2019-04-23T13:34:13.505Z,19.96
2019-04-23T13:36:46.729Z,19.84
2019-04-23T13:41:52.530Z,19.79
2019-04-23T13:44:25.527Z,19.72
2019-04-23T13:47:00.981Z,19.78
2019-04-23T13:49:37.090Z,19.98
2019-04-23T13:52:43.038Z,20.15
2019-04-23T13:54:56.053Z,20.30
2019-04-23T13:57:36.533Z,20.33
2019-04-23T14:05:02.617Z,20.54
2019-04-23T14:07:50.025Z,20.57
2019-04-23T14:15:23.866Z,20.58
2019-04-23T14:18:11.320Z,20.31
2019-04-23T14:20:21.597Z,20.39
2019-04-23T14:25:31.419Z,20.66
2019-04-23T14:28:13.600Z,20.62
2019-04-23T14:30:38.860Z,20.65
2019-04-23T14:33:15.492Z,20.60
2019-04-23T14:35:40.531Z,20.41
2019-04-23T14:43:23.384Z,20.41
2019-04-23T14:46:23.169Z,20.32
2019-04-23T14:51:07.032Z,20.25
2019-04-23T14:53:32.371Z,20.11
2019-04-23T14:58:47.548Z,19.93
2019-04-23T15:01:22.106Z,19.86
2019-04-23T15:19:37.250Z,19.36
2019-04-23T15:29:28.629Z,19.27
2019-04-23T15:32:18.675Z,19.30
2019-04-23T15:34:52.212Z,19.17
2019-04-23T15:42:26.600Z,19.08
2019-04-23T15:45:01.066Z,19.15
2019-04-23T15:47:35.471Z,19.19
2019-04-23T15:50:10.743Z,19.17
2019-04-23T15:52:48.326Z,19.24
2019-04-23T15:55:05.931Z,19.15
2019-04-23T16:00:16.025Z,19.21
2019-04-23T16:02:19.584Z,19.16
2019-04-23T16:04:51.232Z,19.13
2019-04-23T16:07:41.434Z,19.03
2019-04-23T16:10:44.567Z,19.04
2019-04-23T16:13:12.984Z,19.03
2019-04-23T16:15:43.508Z,18.95
2019-04-23T16:18:28.391Z,18.91
2019-04-23T16:20:58.486Z,18.86
2019-04-23T16:23:26.397Z,18.87
2019-04-23T16:26:03.229Z,18.80
2019-04-23T16:28:36.481Z,18.77
2019-04-23T16:31:03.260Z,18.76
2019-04-23T16:33:38.950Z,18.73
2019-04-23T16:36:35.941Z,18.72
2019-04-23T16:38:47.716Z,18.69
2019-04-23T16:41:27.837Z,18.67
2019-04-23T16:46:43.829Z,18.60
2019-04-23T16:49:10.288Z,18.54
2019-04-23T16:51:27.840Z,18.33
2019-04-23T16:54:10.114Z,18.23
2019-04-23T16:59:13.579Z,17.83
2019-04-23T17:01:43.448Z,17.61
2019-04-23T17:04:19.619Z,17.41
2019-04-23T17:06:44.299Z,17.39
2019-04-23T17:09:18.548Z,17.42
2019-04-23T17:14:21.584Z,17.42
2019-04-23T17:16:51.586Z,17.43
2019-04-23T17:24:29.981Z,17.54
2019-04-23T17:27:16.564Z,17.55
2019-04-23T17:32:14.943Z,17.71
2019-04-23T17:37:32.201Z,17.76
2019-04-23T17:40:08.414Z,17.75
2019-04-23T17:45:22.812Z,17.72
2019-04-23T17:47:52.279Z,17.69
2019-04-23T17:50:20.091Z,17.72
2019-04-23T17:52:59.173Z,17.61
2019-04-23T17:55:22.246Z,17.61
2019-04-23T17:58:01.187Z,17.55
2019-04-23T18:00:36.568Z,17.55
2019-04-23T18:03:06.057Z,17.50
2019-04-23T18:05:42.187Z,17.43
2019-04-23T18:08:11.156Z,17.47
2019-04-23T18:10:51.625Z,17.44
2019-04-23T18:13:22.995Z,17.39
2019-04-23T18:16:02.396Z,17.36
2019-04-23T18:18:33.114Z,17.32
2019-04-23T18:21:13.772Z,17.24
2019-04-23T18:23:42.284Z,17.25
2019-04-23T18:26:22.345Z,17.23
2019-04-23T18:29:08.478Z,17.22
2019-04-23T18:31:49.124Z,17.22
2019-04-23T18:34:25.153Z,17.19
2019-04-23T18:36:53.762Z,17.21
2019-04-23T18:39:30.744Z,17.18
2019-04-23T18:42:11.615Z,17.16
2019-04-23T18:44:38.761Z,17.18
2019-04-23T18:47:07.530Z,17.11
2019-04-23T18:49:41.408Z,17.11
2019-04-23T18:52:14.541Z,17.07
2019-04-23T18:54:45.242Z,17.08
2019-04-23T18:57:13.086Z,17.10
2019-04-23T18:59:50.566Z,17.08
2019-04-23T19:02:42.711Z,17.06
2019-04-23T19:05:15.347Z,17.02
2019-04-23T19:08:06.938Z,17.05
2019-04-23T19:13:10.950Z,17.01
2019-04-23T19:18:19.220Z,16.98
2019-04-23T19:23:28.911Z,17.00
2019-04-23T19:25:50.962Z,17.00
2019-04-23T19:28:41.385Z,17.04
2019-04-23T19:31:04.379Z,17.06
2019-04-23T19:38:46.076Z,17.03
2019-04-23T19:41:19.108Z,17.05
2019-04-23T19:43:57.697Z,17.03
2019-04-23T19:46:44.064Z,17.04
2019-04-23T19:49:07.298Z,17.02
2019-04-23T19:51:43.737Z,17.06
2019-04-23T19:56:51.384Z,17.09
2019-04-23T19:59:39.526Z,17.06
2019-04-23T20:01:56.511Z,17.05
2019-04-23T20:04:28.913Z,17.08
2019-04-23T20:07:12.263Z,17.06
2019-04-23T20:09:47.892Z,17.01
2019-04-23T20:12:06.428Z,16.99
2019-04-23T20:14:47.408Z,16.96
2019-04-23T20:19:48.210Z,16.94
2019-04-23T20:22:33.891Z,17.02
2019-04-23T20:25:20.866Z,16.95
2019-04-23T20:27:33.655Z,16.92
2019-04-23T20:33:51.744Z,16.82
2019-04-23T20:35:35.564Z,16.79
2019-04-23T20:40:56.938Z,16.74
2019-04-23T20:43:05.729Z,16.73
2019-04-23T20:45:48.173Z,16.78
2019-04-23T20:48:19.998Z,16.79
2019-04-23T20:50:54.369Z,16.79
2019-04-23T20:53:28.396Z,16.85
2019-04-23T20:58:48.053Z,16.88
2019-04-23T21:01:23.819Z,16.81
2019-04-23T21:03:56.690Z,16.79
2019-04-23T21:06:33.871Z,16.77
2019-04-23T21:09:17.216Z,16.68
2019-04-23T21:11:40.660Z,16.65
2019-04-23T21:16:45.067Z,16.58
2019-04-23T21:19:15.176Z,16.56
2019-04-23T21:22:04.410Z,16.48
2019-04-23T21:24:44.941Z,16.42
2019-04-23T21:28:06.349Z,16.40
2019-04-23T21:30:03.360Z,16.33
2019-04-23T21:35:09.830Z,16.27
2019-04-23T21:40:57.150Z,16.23
2019-04-23T21:43:08.893Z,16.12
2019-04-23T21:45:54.549Z,16.03
2019-04-23T21:48:20.637Z,16.04
2019-04-23T21:50:51.197Z,15.94
2019-04-23T21:53:14.765Z,16.01
2019-04-23T21:55:54.465Z,15.96
2019-04-23T21:58:27.695Z,15.99
2019-04-23T22:03:43.352Z,16.02
2019-04-23T22:06:07.752Z,16.09
2019-04-23T22:08:43.813Z,16.04
2019-04-23T22:11:36.172Z,16.06
2019-04-23T22:13:53.716Z,16.09
2019-04-23T22:16:18.953Z,16.02
2019-04-23T22:19:00.394Z,16.07
2019-04-23T22:21:27.856Z,16.12
2019-04-23T22:26:29.000Z,16.13
2019-04-23T22:29:05.150Z,16.11
2019-04-23T22:31:37.829Z,16.06
2019-04-23T22:34:13.831Z,16.05
2019-04-23T22:36:43.669Z,16.07
2019-04-23T22:39:09.784Z,15.91
2019-04-23T22:41:58.314Z,16.00
2019-04-23T22:44:09.432Z,16.02
2019-04-23T22:46:53.543Z,16.05
2019-04-23T22:49:29.035Z,16.06
2019-04-23T22:52:06.529Z,15.98
2019-04-23T22:54:39.744Z,16.02
2019-04-23T23:02:07.748Z,16.05
2019-04-23T23:04:52.516Z,16.00
2019-04-23T23:09:54.233Z,16.00
2019-04-23T23:12:20.979Z,16.03
2019-04-23T23:14:56.326Z,16.08
2019-04-23T23:17:24.725Z,16.00
2019-04-23T23:20:11.679Z,16.02
2019-04-23T23:22:30.775Z,15.97
2019-04-23T23:25:11.384Z,16.00
2019-04-23T23:27:40.428Z,16.01
2019-04-23T23:32:40.886Z,16.10
2019-04-23T23:35:24.241Z,16.04
2019-04-23T23:38:08.256Z,16.08
2019-04-23T23:40:36.548Z,16.05
2019-04-23T23:43:23.517Z,16.02
2019-04-23T23:45:53.303Z,16.01
2019-04-23T23:48:12.856Z,16.03
2019-04-23T23:53:30.722Z,15.92
2019-04-23T23:55:58.917Z,15.94
2019-04-23T23:58:28.947Z,15.93
